createdAt,value
2023-02-24T00:02:04.164Z,7.78
2023-02-24T00:04:39.846Z,7.80
2023-02-24T00:07:11.702Z,7.81
2023-02-24T00:09:39.192Z,7.80
2023-02-24T00:12:08.684Z,7.81
2023-02-24T00:14:38.911Z,7.81
2023-02-24T00:17:06.738Z,7.78
2023-02-24T00:19:33.541Z,7.78
2023-02-24T00:22:02.414Z,7.82
2023-02-24T00:24:29.450Z,7.85
2023-02-24T00:26:59.500Z,7.81
2023-02-24T00:29:27.892Z,7.75
2023-02-24T00:31:55.645Z,7.77
2023-02-24T00:34:22.699Z,7.76
2023-02-24T00:36:49.304Z,7.72
2023-02-24T00:39:15.759Z,7.67
2023-02-24T00:41:44.025Z,7.68
2023-02-24T00:44:14.270Z,7.67
2023-02-24T00:46:43.636Z,7.70
2023-02-24T00:49:18.586Z,7.72
2023-02-24T00:51:47.856Z,7.70
2023-02-24T00:54:15.426Z,7.74
2023-02-24T00:56:43.737Z,7.76
2023-02-24T00:59:11.254Z,7.76
2023-02-24T01:01:37.793Z,7.81
2023-02-24T01:04:06.768Z,7.80
2023-02-24T01:06:33.807Z,7.83
2023-02-24T01:09:00.994Z,7.87
2023-02-24T01:11:34.011Z,7.84
2023-02-24T01:14:00.467Z,7.86
2023-02-24T01:16:26.942Z,7.84
2023-02-24T01:18:53.754Z,7.80
2023-02-24T01:21:21.302Z,7.77
2023-02-24T01:23:49.912Z,7.68
2023-02-24T01:26:17.610Z,7.67
2023-02-24T01:28:45.115Z,7.69
2023-02-24T01:31:11.623Z,7.73
2023-02-24T01:33:39.157Z,7.71
2023-02-24T01:36:21.672Z,7.67
2023-02-24T01:38:48.560Z,7.68
2023-02-24T01:41:21.353Z,7.71
2023-02-24T01:43:58.984Z,7.72
2023-02-24T01:46:26.471Z,7.74
2023-02-24T01:48:57.146Z,7.72
2023-02-24T01:51:27.856Z,7.75
2023-02-24T01:53:54.849Z,7.72
2023-02-24T01:56:21.497Z,7.73
2023-02-24T01:58:48.349Z,7.73
2023-02-24T02:01:15.996Z,7.77
2023-02-24T02:03:43.483Z,7.73
2023-02-24T02:06:13.456Z,7.66
2023-02-24T02:08:42.146Z,7.62
2023-02-24T02:11:11.814Z,7.60
2023-02-24T02:13:43.183Z,7.55
2023-02-24T02:16:43.585Z,7.61
2023-02-24T02:19:31.067Z,7.50
2023-02-24T02:22:20.990Z,7.41
2023-02-24T02:25:00.129Z,7.44
2023-02-24T02:27:32.413Z,7.36
2023-02-24T02:30:01.928Z,7.35
2023-02-24T02:32:49.730Z,7.33
2023-02-24T02:35:18.486Z,7.40
2023-02-24T02:37:56.256Z,7.35
2023-02-24T02:40:33.427Z,7.44
2023-02-24T02:43:09.112Z,7.38
2023-02-24T02:45:56.941Z,7.50
2023-02-24T02:48:30.887Z,7.43
2023-02-24T02:51:13.816Z,7.43
2023-02-24T02:53:50.928Z,7.45
2023-02-24T02:56:22.385Z,7.39
2023-02-24T02:58:53.762Z,7.36
2023-02-24T03:01:45.712Z,7.32
2023-02-24T03:04:14.328Z,7.24
2023-02-24T03:06:46.654Z,7.25
2023-02-24T03:09:34.455Z,7.34
2023-02-24T03:12:15.258Z,7.34
2023-02-24T03:15:00.610Z,7.29
2023-02-24T03:17:39.881Z,7.32
2023-02-24T03:20:13.713Z,7.37
2023-02-24T03:22:45.734Z,7.31
2023-02-24T03:25:12.225Z,7.34
2023-02-24T03:27:49.424Z,7.33
2023-02-24T03:30:22.565Z,7.44
2023-02-24T03:33:13.676Z,7.37
2023-02-24T03:35:41.235Z,7.34
2023-02-24T03:38:09.061Z,7.30
2023-02-24T03:40:38.088Z,7.30
2023-02-24T03:43:18.836Z,7.28
2023-02-24T03:45:46.103Z,7.24
2023-02-24T03:48:13.803Z,7.24
2023-02-24T03:50:42.426Z,7.27
2023-02-24T03:53:30.302Z,7.26
2023-02-24T03:56:07.914Z,7.25
2023-02-24T03:58:56.548Z,7.26
2023-02-24T04:01:38.118Z,7.24
2023-02-24T04:04:21.467Z,7.25
2023-02-24T04:07:01.114Z,7.26
2023-02-24T04:09:41.555Z,7.26
2023-02-24T04:12:26.590Z,7.27
2023-02-24T04:15:12.414Z,7.27
2023-02-24T04:17:45.314Z,7.29
2023-02-24T04:20:14.641Z,7.26
2023-02-24T04:22:44.484Z,7.24
2023-02-24T04:25:12.575Z,7.25
2023-02-24T04:27:43.141Z,7.25
2023-02-24T04:30:13.109Z,7.25
2023-02-24T04:32:40.214Z,7.25
2023-02-24T04:35:10.247Z,7.27
2023-02-24T04:37:36.973Z,7.27
2023-02-24T04:40:04.602Z,7.24
2023-02-24T04:42:31.161Z,7.34
2023-02-24T04:44:57.704Z,7.31
2023-02-24T04:47:24.425Z,7.36
2023-02-24T04:49:51.109Z,7.38
2023-02-24T04:52:18.091Z,7.42
2023-02-24T04:54:44.621Z,7.43
2023-02-24T04:57:10.960Z,7.45
2023-02-24T04:59:37.597Z,7.46
2023-02-24T05:02:05.378Z,7.45
2023-02-24T05:04:35.622Z,7.47
2023-02-24T05:07:02.144Z,7.50
2023-02-24T05:09:28.563Z,7.54
2023-02-24T05:11:57.549Z,7.55
2023-02-24T05:14:24.289Z,7.57
2023-02-24T05:16:51.158Z,7.54
2023-02-24T05:19:20.151Z,7.55
2023-02-24T05:21:46.967Z,7.55
2023-02-24T05:24:14.539Z,7.51
2023-02-24T05:26:41.002Z,7.45
2023-02-24T05:29:07.645Z,7.36
2023-02-24T05:31:34.729Z,7.35
2023-02-24T05:34:04.067Z,7.42
2023-02-24T05:36:34.218Z,7.41
2023-02-24T05:39:00.745Z,7.33
2023-02-24T05:41:28.063Z,7.29
2023-02-24T05:43:55.795Z,7.24
2023-02-24T05:46:24.859Z,7.24
2023-02-24T05:48:51.304Z,7.23
2023-02-24T05:51:18.197Z,7.24
2023-02-24T05:53:44.672Z,7.24
2023-02-24T05:56:12.717Z,7.29
2023-02-24T05:58:41.835Z,7.28
2023-02-24T06:01:13.522Z,7.29
2023-02-24T06:03:39.945Z,7.28
2023-02-24T06:06:06.677Z,7.30
2023-02-24T06:08:33.614Z,7.29
2023-02-24T06:11:00.075Z,7.30
2023-02-24T06:13:26.488Z,7.29
2023-02-24T06:15:56.186Z,7.29
2023-02-24T06:18:23.238Z,7.31
2023-02-24T06:20:49.650Z,7.33
2023-02-24T06:23:16.145Z,7.34
2023-02-24T06:25:45.199Z,7.36
2023-02-24T06:28:11.752Z,7.37
2023-02-24T06:30:38.479Z,7.41
2023-02-24T06:33:04.964Z,7.42
2023-02-24T06:35:31.989Z,7.36
2023-02-24T06:38:00.025Z,7.36
2023-02-24T06:40:26.561Z,7.35
2023-02-24T06:42:53.474Z,7.33
2023-02-24T06:45:20.246Z,7.34
2023-02-24T06:47:46.709Z,7.34
2023-02-24T06:50:13.214Z,7.40
2023-02-24T06:52:39.894Z,7.43
2023-02-24T06:55:07.188Z,7.53
2023-02-24T06:57:33.974Z,7.46
2023-02-24T07:00:01.035Z,7.37
2023-02-24T07:02:27.382Z,7.34
2023-02-24T07:04:54.069Z,7.44
2023-02-24T07:07:21.143Z,7.36
2023-02-24T07:09:47.606Z,7.34
2023-02-24T07:12:14.056Z,7.32
2023-02-24T07:14:40.940Z,7.38
2023-02-24T07:17:07.909Z,7.39
2023-02-24T07:19:34.342Z,7.34
2023-02-24T07:22:02.868Z,7.30
2023-02-24T07:24:32.534Z,7.31
2023-02-24T07:27:02.082Z,7.30
2023-02-24T07:29:30.685Z,7.31
2023-02-24T07:32:08.723Z,7.29
2023-02-24T07:34:36.011Z,7.31
2023-02-24T07:37:02.462Z,7.40
2023-02-24T07:39:28.878Z,7.45
2023-02-24T07:41:55.281Z,7.43
2023-02-24T07:44:23.432Z,7.49
2023-02-24T07:46:50.933Z,7.49
2023-02-24T07:49:21.892Z,7.47
2023-02-24T07:51:48.713Z,7.47
2023-02-24T07:54:16.413Z,7.46
2023-02-24T07:56:42.990Z,7.46
2023-02-24T07:59:09.577Z,7.58
2023-02-24T08:01:38.055Z,7.63
2023-02-24T08:04:08.577Z,7.70
2023-02-24T08:06:39.420Z,7.74
2023-02-24T08:09:06.964Z,7.78
2023-02-24T08:11:33.505Z,7.77
2023-02-24T08:14:02.176Z,7.77
2023-02-24T08:16:31.379Z,7.76
2023-02-24T08:18:57.771Z,7.78
2023-02-24T08:21:24.211Z,7.76
2023-02-24T08:23:50.634Z,7.57
2023-02-24T08:26:17.183Z,7.51
2023-02-24T08:28:43.622Z,7.45
2023-02-24T08:31:10.486Z,7.56
2023-02-24T08:33:37.246Z,7.55
2023-02-24T08:36:04.916Z,7.59
2023-02-24T08:38:36.238Z,7.55
2023-02-24T08:41:02.629Z,7.59
2023-02-24T08:43:31.340Z,7.55
2023-02-24T08:46:02.170Z,7.61
2023-02-24T08:48:29.993Z,7.63
2023-02-24T08:50:57.189Z,7.66
2023-02-24T08:53:25.344Z,7.60
2023-02-24T08:55:51.833Z,7.63
2023-02-24T08:58:21.312Z,7.65
2023-02-24T09:00:48.024Z,7.74
2023-02-24T09:03:19.421Z,7.76
2023-02-24T09:05:48.337Z,7.82
2023-02-24T09:08:14.955Z,7.87
2023-02-24T09:10:41.719Z,7.89
2023-02-24T09:13:08.602Z,7.94
2023-02-24T09:15:35.111Z,7.96
2023-02-24T09:18:01.852Z,7.96
2023-02-24T09:20:28.619Z,8.00
2023-02-24T09:22:57.783Z,8.02
2023-02-24T09:25:27.296Z,8.08
2023-02-24T09:28:04.388Z,8.17
2023-02-24T09:30:35.280Z,8.25
2023-02-24T09:33:22.403Z,8.36
2023-02-24T09:35:58.282Z,8.25
2023-02-24T09:38:24.690Z,8.31
2023-02-24T09:40:51.089Z,8.39
2023-02-24T09:43:27.559Z,8.41
2023-02-24T09:46:08.184Z,8.43
2023-02-24T09:48:46.081Z,8.46
2023-02-24T09:51:16.633Z,8.50
2023-02-24T09:53:43.243Z,8.54
2023-02-24T09:56:20.323Z,8.59
2023-02-24T09:59:12.274Z,8.67
2023-02-24T10:02:02.525Z,8.68
2023-02-24T10:04:56.866Z,8.73
2023-02-24T10:07:31.949Z,8.76
2023-02-24T10:10:08.103Z,8.73
2023-02-24T10:12:36.461Z,8.72
2023-02-24T10:15:17.545Z,8.83
2023-02-24T10:17:50.338Z,8.78
2023-02-24T10:20:20.210Z,8.76
2023-02-24T10:22:56.780Z,8.79
2023-02-24T10:25:42.295Z,8.78
2023-02-24T10:28:22.279Z,8.76
2023-02-24T10:31:10.958Z,8.84
2023-02-24T10:33:41.747Z,8.78
2023-02-24T10:36:21.390Z,8.87
2023-02-24T10:38:47.854Z,8.86
2023-02-24T10:41:15.426Z,8.95
2023-02-24T10:43:53.830Z,9.10
2023-02-24T10:46:40.172Z,9.23
2023-02-24T10:49:11.384Z,9.34
2023-02-24T10:51:47.380Z,9.27
2023-02-24T10:54:29.204Z,9.32
2023-02-24T10:56:55.908Z,9.41
2023-02-24T10:59:22.489Z,9.39
2023-02-24T11:02:14.663Z,9.37
2023-02-24T11:04:43.725Z,9.40
2023-02-24T11:07:15.195Z,9.34
2023-02-24T11:09:41.729Z,9.29
2023-02-24T11:12:15.902Z,9.27
2023-02-24T11:14:56.141Z,9.05
2023-02-24T11:17:24.128Z,9.06
2023-02-24T11:19:58.824Z,9.13
2023-02-24T11:22:34.439Z,8.87
2023-02-24T11:25:08.974Z,8.82
2023-02-24T11:27:35.924Z,8.92
2023-02-24T11:30:02.532Z,9.03
2023-02-24T11:32:40.628Z,8.97
2023-02-24T11:35:34.141Z,9.03
2023-02-24T11:38:17.037Z,9.12
2023-02-24T11:40:49.194Z,9.26
2023-02-24T11:43:23.444Z,9.20
2023-02-24T11:46:00.328Z,9.20
2023-02-24T11:48:47.084Z,9.09
2023-02-24T11:51:21.025Z,8.97
2023-02-24T11:54:11.342Z,9.03
2023-02-24T11:56:47.099Z,8.99
2023-02-24T11:59:23.382Z,9.02
2023-02-24T12:02:03.441Z,8.94
2023-02-24T12:04:35.551Z,8.94
2023-02-24T12:07:10.828Z,8.95
2023-02-24T12:10:06.969Z,8.92
2023-02-24T12:12:51.383Z,8.88
2023-02-24T12:15:24.444Z,8.94
2023-02-24T12:18:17.253Z,9.19
2023-02-24T12:21:01.329Z,9.42
2023-02-24T12:23:35.761Z,9.71
2023-02-24T12:26:05.667Z,9.87
2023-02-24T12:28:53.517Z,10.05
2023-02-24T12:31:32.177Z,10.07
2023-02-24T12:34:31.530Z,10.15
2023-02-24T12:37:26.417Z,10.40
2023-02-24T12:40:12.703Z,10.36
2023-02-24T12:42:57.334Z,10.21
2023-02-24T12:45:30.734Z,10.55
2023-02-24T12:48:21.473Z,10.81
2023-02-24T12:51:03.632Z,10.62
2023-02-24T12:53:44.130Z,10.62
2023-02-24T12:56:24.135Z,10.37
2023-02-24T12:58:56.472Z,10.34
2023-02-24T13:01:41.127Z,10.07
2023-02-24T13:04:16.516Z,9.80
2023-02-24T13:06:58.321Z,9.83
2023-02-24T13:09:40.637Z,10.07
2023-02-24T13:12:25.903Z,9.93
2023-02-24T13:14:52.818Z,10.00
2023-02-24T13:17:25.113Z,9.96
2023-02-24T13:19:53.402Z,9.74
2023-02-24T13:22:22.173Z,9.60
2023-02-24T13:24:56.952Z,9.67
2023-02-24T13:27:33.580Z,9.69
2023-02-24T13:30:06.983Z,9.75
2023-02-24T13:32:39.302Z,9.87
2023-02-24T13:35:26.490Z,9.85
2023-02-24T13:37:54.136Z,9.95
2023-02-24T13:40:20.526Z,10.01
2023-02-24T13:43:01.052Z,10.05
2023-02-24T13:45:40.756Z,9.86
2023-02-24T13:48:44.814Z,9.93
2023-02-24T13:51:28.967Z,9.84
2023-02-24T13:54:08.041Z,9.75
2023-02-24T13:56:56.960Z,9.79
2023-02-24T13:59:41.524Z,9.85
2023-02-24T14:02:11.086Z,9.87
2023-02-24T14:04:45.194Z,9.91
2023-02-24T14:07:17.950Z,9.99
2023-02-24T14:09:49.261Z,10.03
2023-02-24T14:12:21.225Z,10.00
2023-02-24T14:14:49.229Z,10.07
2023-02-24T14:17:29.900Z,9.98
2023-02-24T14:22:48.899Z,9.95
2023-02-24T14:25:17.199Z,9.88
2023-02-24T14:27:47.229Z,9.86
2023-02-24T14:30:23.743Z,9.84
2023-02-24T14:32:50.442Z,9.80
2023-02-24T14:35:32.586Z,9.81
2023-02-24T14:38:03.773Z,9.78
2023-02-24T14:40:30.395Z,9.78
2023-02-24T14:42:57.037Z,9.76
2023-02-24T14:45:27.218Z,9.73
2023-02-24T14:47:55.381Z,9.70
2023-02-24T14:50:40.205Z,9.71
2023-02-24T14:53:15.815Z,9.70
2023-02-24T14:55:48.343Z,9.67
2023-02-24T14:58:30.252Z,9.68
2023-02-24T15:01:05.375Z,9.64
2023-02-24T15:03:31.881Z,9.59
2023-02-24T15:06:01.370Z,9.46
2023-02-24T15:08:35.837Z,9.36
2023-02-24T15:11:18.473Z,9.26
2023-02-24T15:13:50.221Z,9.16
2023-02-24T15:16:24.722Z,9.14
2023-02-24T15:18:54.224Z,9.11
2023-02-24T15:21:30.556Z,9.08
2023-02-24T15:24:02.899Z,9.03
2023-02-24T15:26:32.417Z,8.99
2023-02-24T15:29:01.730Z,9.01
2023-02-24T15:31:29.801Z,9.02
2023-02-24T15:34:02.998Z,9.03
2023-02-24T15:36:36.169Z,8.99
2023-02-24T15:39:18.535Z,8.97
2023-02-24T15:41:46.996Z,8.95
2023-02-24T15:44:31.755Z,8.94
2023-02-24T15:47:00.009Z,8.94
2023-02-24T15:49:26.928Z,8.94
2023-02-24T15:55:14.511Z,8.89
2023-02-24T15:57:41.563Z,8.87
2023-02-24T16:00:08.709Z,8.83
2023-02-24T16:02:35.322Z,8.77
2023-02-24T16:05:01.827Z,8.78
2023-02-24T16:07:33.780Z,8.73
2023-02-24T16:10:01.235Z,8.77
2023-02-24T16:12:32.860Z,8.71
2023-02-24T16:15:00.578Z,8.65
2023-02-24T16:17:33.726Z,8.59
2023-02-24T16:20:01.110Z,8.52
2023-02-24T16:22:29.109Z,8.49
2023-02-24T16:24:58.204Z,8.43
2023-02-24T16:27:28.038Z,8.42
2023-02-24T16:29:54.362Z,8.36
2023-02-24T16:32:21.106Z,8.29
2023-02-24T16:34:48.056Z,8.23
2023-02-24T16:37:20.021Z,8.19
2023-02-24T16:39:46.972Z,8.16
2023-02-24T16:42:14.531Z,8.12
2023-02-24T16:44:40.905Z,8.09
2023-02-24T16:47:12.295Z,8.09
2023-02-24T16:49:39.961Z,8.06
2023-02-24T16:52:06.684Z,8.04
2023-02-24T16:54:34.268Z,8.03
2023-02-24T16:57:00.849Z,8.02
2023-02-24T16:59:27.263Z,8.03
2023-02-24T17:01:55.545Z,8.02
2023-02-24T17:04:23.364Z,8.00
2023-02-24T17:06:49.727Z,7.95
2023-02-24T17:09:16.398Z,7.94
2023-02-24T17:11:42.990Z,7.93
2023-02-24T17:14:20.614Z,7.92
2023-02-24T17:16:48.759Z,7.90
2023-02-24T17:19:15.466Z,7.91
2023-02-24T17:21:45.672Z,7.88
2023-02-24T17:24:20.682Z,7.81
2023-02-24T17:26:47.511Z,7.83
2023-02-24T17:29:14.696Z,7.83
2023-02-24T17:31:41.710Z,7.81
2023-02-24T17:34:09.863Z,7.81
2023-02-24T17:36:36.943Z,7.83
2023-02-24T17:39:03.520Z,7.84
2023-02-24T17:41:30.635Z,7.83
2023-02-24T17:43:58.402Z,7.85
2023-02-24T17:46:25.303Z,7.85
2023-02-24T17:48:52.008Z,7.86
2023-02-24T17:51:20.207Z,7.81
2023-02-24T17:53:46.926Z,7.81
2023-02-24T17:56:13.536Z,7.80
2023-02-24T17:58:40.597Z,7.78
2023-02-24T18:01:07.578Z,7.76
2023-02-24T18:03:35.437Z,7.75
2023-02-24T18:06:09.011Z,7.73
2023-02-24T18:08:37.298Z,7.72
2023-02-24T18:11:04.851Z,7.75
2023-02-24T18:13:32.741Z,7.70
2023-02-24T18:16:01.949Z,7.71
2023-02-24T18:18:28.465Z,7.73
2023-02-24T18:21:00.293Z,7.74
2023-02-24T18:23:26.807Z,7.71
2023-02-24T18:25:53.312Z,7.66
2023-02-24T18:28:20.216Z,7.69
2023-02-24T18:30:47.145Z,7.65
2023-02-24T18:33:14.132Z,7.66
2023-02-24T18:35:40.863Z,7.63
2023-02-24T18:38:07.287Z,7.60
2023-02-24T18:40:33.765Z,7.55
2023-02-24T18:43:00.207Z,7.53
2023-02-24T18:45:27.895Z,7.53
2023-02-24T18:47:54.525Z,7.56
2023-02-24T18:50:21.166Z,7.56
2023-02-24T18:52:53.783Z,7.56
2023-02-24T18:55:21.444Z,7.54
2023-02-24T18:57:47.975Z,7.52
2023-02-24T19:00:14.980Z,7.55
2023-02-24T19:02:41.881Z,7.53
2023-02-24T19:05:09.003Z,7.51
2023-02-24T19:07:35.491Z,7.53
2023-02-24T19:10:02.137Z,7.50
2023-02-24T19:12:31.364Z,7.50
2023-02-24T19:14:59.126Z,7.48
2023-02-24T19:17:28.112Z,7.46
2023-02-24T19:19:57.369Z,7.45
2023-02-24T19:22:24.051Z,7.46
2023-02-24T19:24:50.511Z,7.41
2023-02-24T19:27:17.188Z,7.45
2023-02-24T19:29:43.513Z,7.50
2023-02-24T19:32:09.960Z,7.48
2023-02-24T19:34:36.915Z,7.46
2023-02-24T19:37:03.313Z,7.46
2023-02-24T19:39:29.773Z,7.46
2023-02-24T19:41:56.382Z,7.47
2023-02-24T19:44:23.801Z,7.42
2023-02-24T19:46:50.318Z,7.41
2023-02-24T19:49:16.837Z,7.39
2023-02-24T19:51:43.237Z,7.38
2023-02-24T19:54:11.961Z,7.40
2023-02-24T19:56:38.416Z,7.37
2023-02-24T19:59:07.796Z,7.37
2023-02-24T20:01:34.240Z,7.36
2023-02-24T20:04:02.861Z,7.36
2023-02-24T20:06:38.799Z,7.33
2023-02-24T20:09:17.669Z,7.30
2023-02-24T20:11:45.579Z,7.29
2023-02-24T20:14:13.606Z,7.32
2023-02-24T20:16:41.259Z,7.31
2023-02-24T20:19:09.117Z,7.29
2023-02-24T20:21:36.120Z,7.27
2023-02-24T20:24:05.702Z,7.27
2023-02-24T20:26:32.973Z,7.25
2023-02-24T20:29:00.816Z,7.20
2023-02-24T20:31:28.115Z,7.18
2023-02-24T20:33:54.866Z,7.23
2023-02-24T20:36:25.272Z,7.26
2023-02-24T20:38:52.421Z,7.19
2023-02-24T20:41:21.504Z,7.18
2023-02-24T20:43:48.492Z,7.14
2023-02-24T20:46:26.288Z,7.12
2023-02-24T20:48:57.212Z,7.09
2023-02-24T20:51:24.379Z,7.08
2023-02-24T20:53:57.841Z,7.09
2023-02-24T20:56:26.876Z,7.12
2023-02-24T20:58:58.919Z,7.09
2023-02-24T21:01:25.957Z,7.08
2023-02-24T21:03:53.490Z,7.07
2023-02-24T21:06:20.279Z,7.00
2023-02-24T21:08:46.975Z,7.03
2023-02-24T21:11:14.482Z,7.03
2023-02-24T21:13:46.040Z,7.03
2023-02-24T21:16:14.004Z,7.01
2023-02-24T21:18:42.394Z,7.00
2023-02-24T21:21:21.117Z,6.95
2023-02-24T21:23:48.353Z,6.77
2023-02-24T21:26:15.795Z,6.68
2023-02-24T21:28:46.481Z,6.54
2023-02-24T21:31:18.676Z,6.51
2023-02-24T21:33:50.007Z,6.15
2023-02-24T21:36:16.704Z,5.63
2023-02-24T21:38:43.130Z,5.36
2023-02-24T21:41:13.331Z,5.14
2023-02-24T21:43:39.951Z,5.11
2023-02-24T21:46:09.376Z,4.84
2023-02-24T21:48:36.111Z,4.83
2023-02-24T21:51:05.805Z,4.75
2023-02-24T21:53:33.491Z,4.55
2023-02-24T21:56:10.401Z,4.45
2023-02-24T21:58:39.168Z,4.34
2023-02-24T22:01:21.178Z,4.23
2023-02-24T22:03:47.654Z,4.20
2023-02-24T22:06:16.025Z,4.14
2023-02-24T22:08:42.512Z,4.04
2023-02-24T22:11:15.441Z,3.92
2023-02-24T22:13:43.994Z,3.96
2023-02-24T22:16:13.474Z,3.83
2023-02-24T22:18:40.295Z,3.79
2023-02-24T22:21:12.333Z,3.80
2023-02-24T22:23:39.814Z,3.65
2023-02-24T22:26:10.407Z,3.65
2023-02-24T22:28:39.882Z,3.67
2023-02-24T22:31:08.230Z,3.72
2023-02-24T22:33:36.614Z,3.67
2023-02-24T22:36:04.898Z,3.62
2023-02-24T22:38:35.846Z,3.58
2023-02-24T22:41:07.246Z,3.52
2023-02-24T22:43:34.413Z,3.58
2023-02-24T22:46:03.673Z,3.56
2023-02-24T22:48:31.192Z,3.44
2023-02-24T22:50:59.507Z,3.46
2023-02-24T22:53:28.550Z,3.45
2023-02-24T22:55:55.019Z,3.52
2023-02-24T22:58:22.142Z,3.51
2023-02-24T23:00:48.784Z,3.53
2023-02-24T23:03:26.042Z,3.58
2023-02-24T23:06:00.759Z,3.52
2023-02-24T23:08:29.161Z,3.48
2023-02-24T23:11:07.716Z,3.48
2023-02-24T23:13:35.031Z,3.52
2023-02-24T23:16:02.826Z,3.51
2023-02-24T23:18:29.917Z,3.48
2023-02-24T23:21:05.424Z,3.56
2023-02-24T23:23:32.404Z,3.59
2023-02-24T23:26:00.086Z,3.60
2023-02-24T23:28:27.095Z,3.60
2023-02-24T23:30:55.204Z,3.64
2023-02-24T23:33:23.254Z,3.64
2023-02-24T23:35:50.146Z,3.67
2023-02-24T23:38:17.171Z,3.75
2023-02-24T23:40:49.987Z,3.72
2023-02-24T23:43:17.673Z,3.70
2023-02-24T23:45:44.834Z,3.67
2023-02-24T23:48:13.506Z,3.64
2023-02-24T23:50:41.524Z,3.66
2023-02-24T23:53:08.822Z,3.70
2023-02-24T23:55:35.825Z,3.70
2023-02-24T23:58:03.492Z,3.73
